Tiempo atmosférico en la estación meteorológica de La Puebla De Los Infantes, Sevilla (200 m.)



Fecha
DESCASC
Temp. máxima en grados centígrados (hora)
DESCASC
Temp. mínima en grados centígrados (hora)
DESCASC
Temp. media en grados centígrados
DESCASC
Racha de viento máxima en m/sg (hora)
DESCASC
Velocidad máxima media en intervalos de 10 minutos(hora)
DESCASC
Precipitaciones diarias en mm
DESCASC
Precipitaciones de 00:00 a 06:00 en mm
DESCASC
Precipitaciones de 06:00 a 12:00 en mm
DESCASC
Precipitaciones de 12:00 a 18:00 en mm
DESCASC
Precipitaciones de 18:00 a 24:00 en mm
DESCASC
05-04-2020 21.9 (16:20) 6.4 (06:40) 14.1 9.44 (20:10) 4.72 (20:10) 0 0 0 0 0
04-04-2020 17.6 (15:00) 2.8 (08:00) 10.2 11.11 (14:40) 6.39 (14:40) 0 0 0 0 0
03-04-2020 20.2 (17:50) 2.4 (07:40) 11.3 5.83 (17:00) 3.06 (17:50) 0 0 0 0 0
02-04-2020 -- (--) -- (--) -- -- (--) -- (--) -- -- -- 2 0
01-04-2020 -- (--) -- (--) -- -- (--) -- (--) -- -- -- -- --
31-03-2020 -- (--) -- (--) -- -- (--) -- (--) -- 13 2.8 -- --
30-03-2020 17.5 (16:10) 5.1 (00:00) 11.3 12.22 (17:40) 7.5 (17:40) 8.4 0 0 3 5.4
29-03-2020 20.5 (15:50) 3.1 (00:00) 11.8 6.67 (17:40) 3.33 (17:40) 0 0 0 0 0
28-03-2020 19 (15:50) 2.6 (00:00) 10.8 6.94 (11:00) 3.89 (10:50) 0 0 0 0 0
27-03-2020 17.6 (17:40) 2.5 (00:00) 10.1 6.67 (13:40) 3.33 (11:20) 0 0 0 0 0
26-03-2020 22 (15:30) 9.5 (00:00) 15.8 8.89 (16:30) 5 (16:30) 0.2 0 0.2 0 0
25-03-2020 20.1 (16:20) 7.7 (00:00) 13.9 7.5 (18:00) 4.17 (21:00) 0.2 0 0 0 0.2
24-03-2020 19.9 (16:20) 7.7 (00:00) 13.8 10.56 (12:20) 6.11 (14:30) 0 0 0 0 0
23-03-2020 18 (16:20) 7.3 (00:00) 12.7 10.83 (19:50) 6.11 (19:50) 4.2 0.6 0.6 0.4 2.6
22-03-2020 14.9 (16:20) 6.1 (00:00) 10.5 4.44 (13:20) 2.78 (13:20) 15.4 5 7.6 2.6 0.2
21-03-2020 14.5 (12:40) 5.7 (00:00) 10.1 11.39 (13:50) 5.28 (02:10) 23.4 13.6 0 9.4 0.4
20-03-2020 19.9 (14:50) 8.8 (00:00) 14.3 8.33 (17:00) 5.56 (21:50) 0.4 0 0 0 0.4
19-03-2020 21.8 (16:20) 7.4 (00:00) 14.6 9.44 (14:50) 5.28 (14:50) 0 0 0 0 0
18-03-2020 22.9 (16:40) 9 (00:00) 15.9 12.78 (11:40) 7.78 (12:10) 0 0 0 0 0
17-03-2020 18 (15:20) 6.1 (00:00) 12 9.17 (13:40) 5.56 (15:40) 3 0.6 2.4 0 0
16-03-2020 14.4 (00:10) 3.8 (00:00) 9.1 11.67 (02:40) 6.39 (02:40) 0 0 0 0 0
15-03-2020 22.7 (16:30) 5.9 (00:00) 14.3 7.22 (18:20) 4.44 (17:50) 0 0 0 0 0
14-03-2020 22.1 (16:40) 7.9 (00:00) 15 3.89 (16:50) 2.22 (13:50) 0 0 0 0 0
13-03-2020 22.3 (16:20) 4.1 (07:00) 13.2 6.39 (17:40) 4.17 (17:10) 0 0 0 0 0
12-03-2020 25.7 (15:00) 5.5 (00:00) 15.6 9.72 (16:10) 4.72 (15:20) 0 0 0 0 0
11-03-2020 28.4 (16:10) 4.2 (00:00) 16.3 5.83 (11:40) 3.61 (11:20) 0 0 0 0 0

Gráficas

Temp. máximas Temp. mínimas Temp. medias Precipitaciones Rachas de viento máximas Velocidades máximas media en intervalos de 10 minutos

Datos horarios

Fecha y hora oficial Temperatura (ºC) Velocidad del viento (km/h) Dirección del viento Racha (km/h) Dirección de racha Precipitación (mm) Presión (hPa) Tendencia (hPa) Humedad (%)
2020-04-09 23:00:00 14 4 Noroeste 7 Oeste 0 -- -- 90
2020-04-09 22:00:00 14 4 Nordeste 9 Nordeste 0 -- -- 89
2020-04-09 21:00:00 14.8 5 Este 10 Nordeste 0.2 -- -- 87
2020-04-09 20:00:00 16.1 3 Este 6 Nordeste 0.2 -- -- 90
2020-04-09 19:00:00 17.1 4 Norte 7 Norte 0.4 -- -- 85
2020-04-09 18:00:00 18.2 3 Noroeste 8 Oeste 0.8 -- -- 82
2020-04-09 17:00:00 19.1 3 Oeste 10 Sudoeste 0 -- -- 67
2020-04-09 16:00:00 19.3 5 Sudoeste 11 Sur 0 -- -- 60
2020-04-09 15:00:00 18.9 5 Sudeste 12 Sudeste 0 -- -- 58
2020-04-09 14:00:00 18.3 6 Sudeste 19 Sur 0 -- -- 61
2020-04-09 13:00:00 18 9 Sur 19 Sudeste 0 -- -- 60
2020-04-09 12:00:00 17 3 Este 7 Sudeste 0 -- -- 72
2020-04-09 11:00:00 16.1 2 Este 4 Este 0 -- -- 76
2020-04-09 10:00:00 14.7 0 Calma 2 Nordeste 0 -- -- 83
2020-04-09 09:00:00 13.6 0 Calma 5 Nordeste 0 -- -- 92
2020-04-09 08:00:00 12.8 3 Este 5 Nordeste 0 -- -- 93
2020-04-09 07:00:00 13 0 Calma 4 Sur 0 -- -- 93
2020-04-09 06:00:00 13.3 2 Sudoeste 10 Este 0 -- -- 91
2020-04-09 05:00:00 13.5 3 Sudeste 7 Este 0 -- -- 90
2020-04-09 04:00:00 13.9 4 Este 9 Este 0 -- -- 88
2020-04-09 03:00:00 14.5 5 Este 10 Este 0 -- -- 82
2020-04-09 02:00:00 15.1 6 Este 10 Este 0 -- -- 78
2020-04-09 01:00:00 15.7 5 Este 10 Nordeste 0 -- -- 79
2020-04-09 00:00:00 16.2 6 Nordeste 13 Nordeste 0 -- -- 78
2020-04-08 23:00:00 16.7 6 Este 11 Este 0 -- -- 79
2020-04-08 22:00:00 17.3 0 Calma 4 Este 0 -- -- 85
2020-04-08 21:00:00 19.4 0 Calma 5 Sur 0 -- -- 75
2020-04-08 20:00:00 21.5 0 Calma 10 Sur 0 -- -- 67
2020-04-08 19:00:00 22.5 3 Sur 11 Sur 0 -- -- 58
2020-04-08 18:00:00 22.8 5 Sudeste 14 Sudeste 0 -- -- 56
2020-04-08 17:00:00 22.6 6 Este 24 Sudeste 0 -- -- 56
2020-04-08 16:00:00 22.7 3 Este 18 Sudeste 0 -- -- 57
2020-04-08 15:00:00 22 6 Sur 30 Este 0 -- -- 61
2020-04-08 14:00:00 20.9 11 Sudeste 19 Este 0 -- -- 67
2020-04-08 13:00:00 19.5 7 Este 17 Este 0 -- -- 70
2020-04-08 12:00:00 18.7 9 Este 15 Este 0 -- -- 71
2020-04-08 11:00:00 16.5 7 Este 15 Este 0 -- -- 80
2020-04-08 10:00:00 14 3 Este 4 Este 0 -- -- 96
2020-04-08 09:00:00 11.3 0 Calma 4 Este 0 -- -- 98
2020-04-08 08:00:00 10.1 2 Oeste 4 Oeste 0 -- -- 95
2020-04-08 07:00:00 11.4 -- -- -- -- 0 -- -- 95
2020-04-08 06:00:00 12.7 5 Este 8 Este 0 -- -- 94
2020-04-08 05:00:00 13.1 3 Este 8 Nordeste 0 -- -- 96
2020-04-08 04:00:00 12.6 6 Nordeste 11 Este 0 -- -- 97
2020-04-08 03:00:00 10.5 3 Este 6 Este 0 -- -- 93
2020-04-08 02:00:00 11.3 0 Calma 7 Nordeste 0 -- -- 93
2020-04-08 01:00:00 11.9 2 Nordeste 8 Sudeste 0 -- -- 94
2020-04-08 00:00:00 12.6 2 Norte 7 Norte 0 -- -- 92
2020-04-07 23:00:00 13.8 0 Calma 5 Norte 0 -- -- 91
2020-04-07 22:00:00 15.2 0 Calma 6 Noroeste 0 -- -- 88
2020-04-07 21:00:00 18.6 4 Sudoeste 10 Sudoeste 0 -- -- 75
2020-04-07 20:00:00 21.7 5 Sudoeste 13 Sudoeste 0 -- -- 63
2020-04-07 19:00:00 23.2 4 Oeste 13 Oeste 0 -- -- 56
2020-04-07 18:00:00 23.2 6 Sudoeste 11 Oeste 0 -- -- 55
2020-04-07 17:00:00 22.8 6 Noroeste 11 Oeste 0 -- -- 61
2020-04-07 16:00:00 22.6 6 Sudoeste 17 Sudeste 0 -- -- 62
2020-04-07 15:00:00 21.3 7 Sur 14 Sudeste 0 -- -- 68
2020-04-07 14:00:00 20.2 5 Este 12 Nordeste 0 -- -- 72
2020-04-07 13:00:00 18.9 7 Este 13 Sur 0 -- -- 77
2020-04-07 12:00:00 18.2 6 Este 15 Este 0 -- -- 79
2020-04-07 11:00:00 17.3 6 Sudeste 15 Sudeste 0 -- -- 81
2020-04-07 10:00:00 15.4 7 Este 13 Sudeste 0 -- -- 94
2020-04-07 09:00:00 14.8 3 Este 8 Este 0 -- -- 97
2020-04-07 08:00:00 14.6 0 Calma 6 Noroeste 0 -- -- 95
2020-04-07 07:00:00 14.7 2 Noroeste 12 Sudoeste 0 -- -- 96
2020-04-07 06:00:00 15 8 Sur 11 Sudoeste 0 -- -- 96
2020-04-07 05:00:00 15.1 0 Calma 5 Sudoeste 0 -- -- 96
2020-04-07 04:00:00 15.2 0 Calma 5 Sudeste 0 -- -- 97
2020-04-07 03:00:00 15 4 Este 5 Este 0 -- -- 97
2020-04-07 02:00:00 15 2 Noroeste 3 Noroeste 0 -- -- 97
2020-04-07 01:00:00 14.6 3 Norte 5 Sudeste 0.2 -- -- 97
2020-04-07 00:00:00 14.6 0 Calma 4 Noroeste 0 -- -- 96
2020-04-06 23:00:00 14.2 4 Noroeste 6 Noroeste 0 -- -- 95
2020-04-06 22:00:00 15.4 0 Calma 2 Norte 0 -- -- 94
2020-04-06 21:00:00 15.8 0 Calma 8 Este 0 -- -- 92
2020-04-06 20:00:00 17.5 0 Calma 6 Nordeste 0 -- -- 85
2020-04-06 19:00:00 17.8 3 Noroeste 6 Nordeste 0 -- -- 87
2020-04-06 18:00:00 17 3 Oeste 10 Oeste 0 -- -- 88
2020-04-06 17:00:00 16.4 2 Noroeste 8 Oeste 0 -- -- 90
2020-04-06 16:00:00 16 4 Oeste 8 Oeste 0.8 -- -- 93
2020-04-06 15:00:00 16.2 3 Sur 8 Sur 0.2 -- -- 89
2020-04-06 14:00:00 16.1 3 Oeste 8 Oeste 0 -- -- 89
2020-04-06 13:00:00 16 3 Noroeste 8 Sudeste 0 -- -- 88
2020-04-06 12:00:00 14 4 Nordeste 8 Este 0 -- -- 96
2020-04-06 11:00:00 12.6 4 Nordeste 8 Este 0.2 -- -- 96
2020-04-06 10:00:00 12.2 3 Este 8 Este 0.2 -- -- 95
2020-04-06 09:00:00 12 3 Este 7 Este 0.4 -- -- 96
2020-04-06 08:00:00 11.9 3 Nordeste 8 Este 2 -- -- 94
2020-04-06 07:00:00 12.7 5 Este 9 Nordeste 0.4 -- -- 90
2020-04-06 06:00:00 13.2 5 Este 10 Este 0 -- -- 85
2020-04-06 05:00:00 13.4 5 Este 10 Nordeste 0 -- -- 86
2020-04-06 04:00:00 14.5 4 Sudeste 10 Sur 0 -- -- 84
2020-04-06 03:00:00 14.7 6 Sur 13 Sur 0 -- -- 83
2020-04-06 02:00:00 15.4 7 Sudeste 19 Sudoeste 0 -- -- 82
2020-04-06 01:00:00 15.9 11 Sudoeste 18 Sudoeste 0 -- -- 79
2020-04-06 00:00:00 15 4 Sudoeste 10 Sudoeste 0 -- -- 85
2020-04-05 23:00:00 15.6 4 Sudoeste 17 Sudoeste 0 -- -- 80
2020-04-05 22:00:00 16.9 11 Sudoeste 22 Sudoeste 0 -- -- 76
2020-04-05 21:00:00 17.7 13 Sudoeste 34 Sudoeste 0 -- -- 73
2020-04-05 20:00:00 19.6 14 Sudoeste 26 Sudoeste 0 -- -- 65
2020-04-05 19:00:00 21.2 14 Sur 31 Sudoeste 0 -- -- 60
2020-04-05 18:00:00 21.1 9 Oeste 27 Oeste 0 -- -- 59
2020-04-05 17:00:00 21.6 13 Sudoeste 28 Sudoeste 0 -- -- 57
2020-04-05 16:00:00 21.3 13 Sudoeste 26 Sudoeste 0 -- -- 52
2020-04-05 15:00:00 21.5 12 Sur 23 Sudoeste 0 -- -- 53
2020-04-05 14:00:00 19.4 8 Sudeste 19 Sudeste 0 -- -- 61
2020-04-05 13:00:00 17.9 8 Este 18 Este 0 -- -- 66
2020-04-05 12:00:00 16.7 9 Sudeste 20 Este 0 -- -- 66
2020-04-05 11:00:00 15.9 10 Este 20 Este 0 -- -- 68
2020-04-05 10:00:00 12.2 4 Este 9 Este 0 -- -- 87
2020-04-05 09:00:00 8.2 3 Nordeste 5 Nordeste 0 -- -- 94
2020-04-05 08:00:00 8 3 Este 6 Este 0 -- -- 91
2020-04-05 07:00:00 6.7 2 Nordeste 4 Nordeste 0 -- -- 95
2020-04-05 06:00:00 6.6 0 Calma 4 Este 0 -- -- 92
2020-04-05 05:00:00 7.7 0 Calma 6 Nordeste 0 -- -- 90
2020-04-05 04:00:00 8.7 2 Norte 8 Este 0 -- -- 87
2020-04-05 03:00:00 9.6 5 Este 10 Este 0 -- -- 83
2020-04-05 02:00:00 12.3 8 Sudeste 26 Sudeste 0 -- -- 73
2020-04-05 01:00:00 13.1 12 Sudeste 24 Sudeste 0 -- -- 68
2020-04-05 00:00:00 13.8 14 Sudeste 26 Sudeste 0 -- -- 66
2020-04-04 23:00:00 12.7 6 Sudeste 15 Sudeste 0 -- -- 75
2020-04-04 22:00:00 13.5 10 Este 16 Este 0 -- -- 73
2020-04-04 21:00:00 14.2 7 Este 15 Este 0 -- -- 76
2020-04-04 20:00:00 15.4 7 Este 15 Este 0 -- -- 73
2020-04-04 19:00:00 16.1 9 Este 16 Este 0 -- -- 69
2020-04-04 18:00:00 16 6 Este 13 Este 0 -- -- 68
2020-04-04 17:00:00 15.2 4 Sudeste 31 Sudeste 0 -- -- 70
2020-04-04 16:00:00 16.6 23 Sudeste 36 Sudeste 0 -- -- 57
2020-04-04 15:00:00 17.6 22 Sudeste 40 Sudeste 0 -- -- 55
2020-04-04 14:00:00 17.1 9 Sudeste 22 Sudeste 0 -- -- 62
2020-04-04 13:00:00 16.3 10 Sudeste 21 Sudeste 0 -- -- 63
2020-04-04 12:00:00 15.6 8 Este 19 Este 0 -- -- 66
2020-04-04 11:00:00 13.9 11 Este 24 Este 0 -- -- 72
2020-04-04 10:00:00 11.6 12 Este 19 Este 0 -- -- 86
2020-04-04 09:00:00 5.7 0 Calma 4 Norte 0 -- -- 99
2020-04-04 08:00:00 2.8 0 Calma 4 Norte 0 -- -- 96
2020-04-04 07:00:00 3.4 0 Calma 3 Sur 0 -- -- 95
2020-04-04 06:00:00 3.9 0 Calma 5 Norte 0 -- -- 95
2020-04-04 05:00:00 4.5 0 Calma 4 Norte 0 -- -- 94
2020-04-04 04:00:00 5.3 0 Calma 6 Norte 0 -- -- 94
2020-04-04 03:00:00 5.9 2 Oeste 4 Oeste 0 -- -- 94
2020-04-04 02:00:00 6.9 0 Calma 2 Norte 0 -- -- 91
2020-04-04 01:00:00 8.3 0 Calma 6 Este 0 -- -- 90
2020-04-04 00:00:00 10.3 0 Calma 7 Sudeste 0 -- -- 84
2020-04-03 23:00:00 11.6 5 Nordeste 10 Nordeste 0 -- -- 79
2020-04-03 22:00:00 13.5 7 Sudeste 13 Sudeste 0 -- -- 77
2020-04-03 21:00:00 15.8 0 Calma 10 Este 0 -- -- 73
2020-04-03 20:00:00 19.4 4 Sudeste 12 Sudeste 0 -- -- 56
2020-04-03 19:00:00 20 5 Sudeste 18 Sudeste 0 -- -- 47
2020-04-03 18:00:00 20.1 10 Sudeste 18 Sudeste 0 -- -- 49
2020-04-03 17:00:00 19.7 10 Este 21 Este 0 -- -- 52
2020-04-03 16:00:00 19.1 7 Sudeste 18 Sudeste 0 -- -- 63
2020-04-03 15:00:00 18.1 9 Sudeste 16 Sudeste 0 -- -- 61
2020-04-03 14:00:00 16.7 8 Sudeste 18 Sudeste 0 -- -- 68
2020-04-03 13:00:00 15.2 8 Sudeste 15 Este 0 -- -- 78
2020-04-03 12:00:00 13.3 9 Este 16 Sudeste 0 -- -- 82
2020-04-03 11:00:00 12.2 10 Este 15 Este 0 -- -- 85
2020-04-03 10:00:00 9.1 0 Calma 6 Oeste 0 -- -- 99
2020-04-03 09:00:00 4.1 2 Oeste 4 Oeste 0 -- -- 99
2020-04-03 08:00:00 2.6 2 Norte 4 Norte 0 -- -- 98
2020-04-03 07:00:00 2.8 0 Calma 4 Norte 0 -- -- 97
2020-04-03 06:00:00 3.3 0 Calma 4 Norte 0 -- -- 98
2020-04-03 05:00:00 3.5 0 Calma 4 Este 0 -- -- 97
2020-04-03 04:00:00 3.9 0 Calma 3 Este 0 -- -- 96
2020-04-03 03:00:00 4.3 0 Calma 3 Noroeste 0 -- -- 96
2020-04-03 02:00:00 4.8 2 Norte 4 Norte 0 -- -- 95
2020-04-03 01:00:00 5.5 0 Calma 3 Noroeste 0 -- -- 95
2020-04-03 00:00:00 6.3 0 Calma 4 Noroeste 0 -- -- 92
2020-04-02 23:00:00 7.5 3 Noroeste 5 Noroeste 0 -- -- 92
2020-04-02 22:00:00 8.8 2 Sudeste 3 Este 0 -- -- 86
2020-04-02 21:00:00 12.3 0 Calma 12 Norte 0 -- -- 80
2020-04-02 20:00:00 15.9 3 Noroeste 20 Norte 0 -- -- 63
2020-04-02 19:00:00 16.4 8 Noroeste 20 Noroeste 0 -- -- 68
2020-04-02 18:00:00 14 0 Calma 14 Sudeste 0.2 -- -- 74
2020-04-02 17:00:00 14.1 8 Este 20 Este 0 -- -- 74
2020-04-02 16:00:00 14 9 Nordeste 18 Nordeste 0 -- -- 76
2020-04-02 15:00:00 11.5 6 Norte 14 Nordeste 0.8 -- -- 88
2020-04-02 14:00:00 10.6 8 Nordeste 17 Este 0.8 -- -- 89
2020-04-02 13:00:00 11 0 Calma 14 Nordeste 0.2 -- -- 87
2020-04-02 12:00:00 11.1 6 Norte 12 Nordeste 0 -- -- 96
2020-04-02 11:00:00 9.6 8 Nordeste -- -- -- -- -- 97
2020-04-02 10:00:00 -- -- -- -- -- -- -- -- --
2020-04-02 09:00:00 -- -- -- -- -- -- -- -- --
2020-04-02 08:00:00 -- -- -- -- -- -- -- -- --
2020-04-02 07:00:00 -- -- -- -- -- -- -- -- --
2020-04-02 06:00:00 -- -- -- -- -- -- -- -- --
2020-04-02 05:00:00 -- -- -- -- -- -- -- -- --
2020-04-02 04:00:00 -- -- -- -- -- -- -- -- --
2020-04-02 03:00:00 -- -- -- -- -- -- -- -- --
2020-04-02 02:00:00 -- -- -- -- -- -- -- -- --
2020-04-02 01:00:00 -- -- -- -- -- -- -- -- --
2020-04-02 00:00:00 -- -- -- -- -- -- -- -- --
2020-04-01 23:00:00 -- -- -- -- -- -- -- -- --
2020-04-01 22:00:00 -- -- -- -- -- -- -- -- --
2020-04-01 21:00:00 -- -- -- -- -- -- -- -- --
2020-04-01 20:00:00 -- -- -- -- -- -- -- -- --
2020-04-01 19:00:00 -- -- -- -- -- -- -- -- --
2020-04-01 18:00:00 -- -- -- -- -- -- -- -- --
2020-04-01 17:00:00 -- -- -- -- -- -- -- -- --
2020-04-01 16:00:00 -- -- -- -- -- -- -- -- --
2020-04-01 15:00:00 -- -- -- -- -- -- -- -- --
2020-04-01 14:00:00 -- -- -- -- -- -- -- -- --
2020-04-01 13:00:00 -- -- -- -- -- -- -- -- --
2020-04-01 12:00:00 -- -- -- -- -- -- -- -- --
2020-04-01 11:00:00 -- -- -- -- -- -- -- -- --
2020-04-01 10:00:00 -- -- -- -- -- -- -- -- --
2020-04-01 09:00:00 -- -- -- -- -- -- -- -- --
2020-04-01 08:00:00 -- -- -- -- -- -- -- -- --
2020-04-01 07:00:00 -- -- -- -- -- -- -- -- --
2020-04-01 06:00:00 -- -- -- -- -- -- -- -- --
2020-04-01 05:00:00 -- -- -- -- -- -- -- -- --
2020-04-01 04:00:00 -- -- -- -- -- -- -- -- --
2020-04-01 03:00:00 -- -- -- -- -- -- -- -- --
2020-04-01 02:00:00 -- -- -- -- -- -- -- -- --
2020-04-01 01:00:00 -- -- -- -- -- -- -- -- --
2020-04-01 00:00:00 -- -- -- -- -- -- -- -- --
2020-03-31 23:00:00 -- -- -- -- -- -- -- -- --
2020-03-31 22:00:00 -- -- -- -- -- -- -- -- --
2020-03-31 21:00:00 -- -- -- -- -- -- -- -- --
2020-03-31 20:00:00 -- -- -- -- -- -- -- -- --
2020-03-31 19:00:00 -- -- -- -- -- -- -- -- --
2020-03-31 18:00:00 -- -- -- -- -- -- -- -- --
2020-03-31 17:00:00 -- -- -- -- -- -- -- -- --
2020-03-31 16:00:00 14.7 12 Sudoeste 33 Sudoeste 3.8 -- -- 88
2020-03-31 15:00:00 16.2 12 Sur 34 Sur 0.4 -- -- 79
2020-03-31 14:00:00 16.6 24 Sur 42 Sur 0 -- -- 76
2020-03-31 13:00:00 15.9 12 Sur 30 Sur 0.4 -- -- 84
2020-03-31 12:00:00 14.4 9 Sudoeste 27 Sur 0 -- -- 87
2020-03-31 11:00:00 13.3 12 Sudoeste 31 Sudoeste 0 -- -- 89
2020-03-31 10:00:00 12.8 13 Sur 24 Sur 0 -- -- 93
2020-03-31 09:00:00 11.7 10 Sur 22 Sur 0 -- -- 95
2020-03-31 08:00:00 11.5 12 Sur 30 Sur 0 -- -- 96
2020-03-31 07:00:00 11.2 15 Sur 26 Sur 2.8 -- -- 97
2020-03-31 06:00:00 10.6 12 Sudeste 29 Este 0.8 -- -- 97
2020-03-31 05:00:00 10.4 16 Este 30 Este 0.2 -- -- 97
2020-03-31 04:00:00 10.3 17 Este 32 Este 4.8 -- -- 97
2020-03-31 03:00:00 10.3 17 Este 29 Este 1.4 -- -- 97
2020-03-31 02:00:00 10.2 15 Este 23 Este 2.8 -- -- 96
2020-03-31 01:00:00 10.4 9 Sudeste 26 Sudeste 3 -- -- 96
2020-03-31 00:00:00 10.5 6 Este 18 Este 0.4 -- -- 96
2020-03-30 23:00:00 10.4 2 Sudeste 5 Este 0 -- -- 96
2020-03-30 22:00:00 10.8 0 Calma 6 Este 0 -- -- 94
2020-03-30 21:00:00 11.5 0 Calma 6 Noroeste 0.2 -- -- 93
2020-03-30 20:00:00 11.7 4 Noroeste 13 Oeste 1.2 -- -- 93
2020-03-30 19:00:00 12.3 4 Noroeste 13 Oeste 3.6 -- -- 93
2020-03-30 18:00:00 12.4 12 Oeste 44 Sudoeste 3 -- -- 91
2020-03-30 17:00:00 16.8 9 Sudoeste 17 Sudoeste 0 -- -- 61
2020-03-30 16:00:00 17.3 10 Sudoeste 19 Sudoeste 0 -- -- 59
2020-03-30 15:00:00 16.9 9 Sudoeste 18 Sudoeste 0 -- -- 63
2020-03-30 14:00:00 16.4 8 Sudoeste 17 Sudoeste 0 -- -- 65
2020-03-30 13:00:00 15.2 8 Sudoeste 16 Sudeste 0 -- -- 73
2020-03-30 12:00:00 13.9 8 Sur 13 Sur 0 -- -- 84
2020-03-30 11:00:00 12 3 Este 6 Este 0 -- -- 96
2020-03-30 10:00:00 10.1 0 Calma 4 Norte 0 -- -- 98
2020-03-30 09:00:00 7.9 0 Calma 3 Noroeste 0 -- -- 98
2020-03-30 08:00:00 6.8 0 Calma 3 Sudeste 0 -- -- 97
2020-03-30 07:00:00 5.3 0 Calma 4 Norte 0 -- -- 96
2020-03-30 06:00:00 5.5 0 Calma 3 Norte 0 -- -- 95
2020-03-30 05:00:00 5.9 0 Calma 4 Noroeste 0 -- -- 94
2020-03-30 04:00:00 6.5 2 Noroeste 4 Norte 0 -- -- 94
2020-03-30 03:00:00 7.1 0 Calma 5 Norte 0 -- -- 94
2020-03-30 02:00:00 7.3 3 Noroeste 5 Noroeste 0 -- -- 91
2020-03-30 01:00:00 8.4 0 Calma 6 Norte 0 -- -- 91
2020-03-30 00:00:00 9.9 0 Calma 4 Norte 0 -- -- 87
2020-03-29 23:00:00 11.6 0 Calma 5 Norte 0 -- -- 84
2020-03-29 22:00:00 13 0 Calma 5 Noroeste 0 -- -- 82
2020-03-29 21:00:00 14.9 3 Noroeste 5 Noroeste 0 -- -- 74
2020-03-29 20:00:00 18 4 Oeste 10 Sudoeste 0 -- -- 57
2020-03-29 19:00:00 18.8 6 Oeste 15 Sudoeste 0 -- -- 46
2020-03-29 18:00:00 19.4 8 Oeste 24 Sudoeste 0 -- -- 46
2020-03-29 17:00:00 20.3 9 Sur 16 Sudoeste 0 -- -- 45
2020-03-29 16:00:00 20.3 7 Sudoeste 19 Sudoeste 0 -- -- 44
2020-03-29 15:00:00 19.8 9 Sudeste 17 Sur 0 -- -- 49
2020-03-29 14:00:00 18.6 5 Sudeste 13 Sudeste 0 -- -- 60
2020-03-29 13:00:00 17.2 4 Sur 10 Este 0 -- -- 62
2020-03-29 12:00:00 15.6 3 Sudoeste 6 Nordeste 0 -- -- 65
2020-03-29 11:00:00 13 3 Este 5 Sur 0 -- -- 81
2020-03-29 10:00:00 8.9 0 Calma 3 Sur 0 -- -- 98
2020-03-29 09:00:00 4.3 0 Calma 2 Norte 0 -- -- 98
2020-03-29 08:00:00 3.3 0 Calma 0 Calma 0 -- -- 95
2020-03-29 07:00:00 4.1 0 Calma 2 Noroeste 0 -- -- 94
2020-03-29 06:00:00 5 0 Calma 3 Noroeste 0 -- -- 93
2020-03-29 05:00:00 6.3 0 Calma 2 Noroeste 0 -- -- 94
2020-03-29 03:00:00 6.7 0 Calma 2 Nordeste 0 -- -- 96
2020-03-29 01:00:00 6.2 0 Calma 3 Sudoeste 0 -- -- 93
2020-03-29 00:00:00 7 2 Norte 5 Sudoeste 0 -- -- 92
2020-03-28 23:00:00 8.2 0 Calma 5 Noroeste 0 -- -- 90
2020-03-28 22:00:00 9.2 4 Norte 8 Norte 0 -- -- 91
2020-03-28 21:00:00 10.4 3 Norte 6 Noroeste 0 -- -- 87
2020-03-28 20:00:00 13.1 0 Calma 6 Sudeste 0 -- -- 77
2020-03-28 19:00:00 18 6 Sudeste 12 Sudeste 0 -- -- 58
2020-03-28 18:00:00 18.1 4 Este 12 Este 0 -- -- 53
2020-03-28 17:00:00 17.9 6 Nordeste 12 Norte 0 -- -- 58
2020-03-28 16:00:00 18.6 6 Nordeste 10 Este 0 -- -- 57
2020-03-28 15:00:00 17.8 5 Nordeste 14 Sudeste 0 -- -- 55
2020-03-28 14:00:00 18.2 4 Noroeste 19 Este 0 -- -- 53
2020-03-28 13:00:00 17.8 13 Sudeste 21 Este 0 -- -- 59
2020-03-28 12:00:00 16.2 9 Este 21 Este 0 -- -- 63
2020-03-28 11:00:00 14.1 12 Este 25 Este 0 -- -- 68
2020-03-28 10:00:00 12.3 11 Este 19 Este 0 -- -- 72
2020-03-28 09:00:00 9.4 6 Nordeste 10 Nordeste 0 -- -- 83
2020-03-28 08:00:00 3.9 0 Calma 3 Sur 0 -- -- 97
2020-03-28 07:00:00 2.6 0 Calma 3 Norte 0 -- -- 93
2020-03-28 06:00:00 3.6 0 Calma 3 Sudoeste 0 -- -- 92
2020-03-28 05:00:00 4.8 0 Calma 3 Sudoeste 0 -- -- 90
2020-03-28 04:00:00 6.4 0 Calma 3 Norte 0 -- -- 88
2020-03-28 03:00:00 7.7 0 Calma 5 Norte 0 -- -- 88
2020-03-28 02:00:00 7.9 0 Calma 7 Norte 0 -- -- 84
2020-03-28 01:00:00 9.4 0 Calma 9 Norte 0 -- -- 83
2020-03-28 00:00:00 9.7 3 Sudeste 9 Nordeste 0 -- -- 71
2020-03-27 23:00:00 11.1 0 Calma 8 Norte 0 -- -- 69
2020-03-27 22:00:00 12.1 2 Noroeste 12 Oeste 0 -- -- 69
2020-03-27 21:00:00 12.8 2 Este 22 Norte 0 -- -- 68
2020-03-27 20:00:00 13.6 9 Norte 18 Norte 0 -- -- 66
2020-03-27 19:00:00 14.8 8 Norte 17 Norte 0 -- -- 65
2020-03-27 18:00:00 17.4 5 Sudoeste 19 Sudoeste 0 -- -- 55
2020-03-27 17:00:00 17.2 5 Sudoeste 17 Sudoeste 0 -- -- 56
2020-03-27 16:00:00 16.5 5 Sudoeste 18 Oeste 0 -- -- 56
2020-03-27 15:00:00 15.9 9 Sudoeste 22 Oeste 0 -- -- 58
2020-03-27 14:00:00 14.6 8 Noroeste 24 Oeste 0 -- -- 66
2020-03-27 13:00:00 13.1 8 Sudoeste 19 Sudoeste 0 -- -- 68
2020-03-27 12:00:00 12.1 8 Sudoeste 22 Sur 0 -- -- 75
2020-03-27 11:00:00 11.2 9 Sur 20 Sur 0 -- -- 80
2020-03-27 10:00:00 9 4 Nordeste 7 Nordeste 0 -- -- 98
2020-03-27 09:00:00 7.5 2 Este 6 Norte 0 -- -- 98
2020-03-27 08:00:00 5.4 0 Calma 4 Nordeste 0 -- -- 98
2020-03-27 07:00:00 2.8 3 Oeste 4 Oeste 0 -- -- 96
2020-03-27 06:00:00 2.7 3 Noroeste 5 Norte 0 -- -- 95
2020-03-27 05:00:00 3.3 2 Norte 3 Noroeste 0 -- -- 93
2020-03-27 04:00:00 4.4 0 Calma 4 Norte 0 -- -- 91
2020-03-27 03:00:00 5.4 0 Calma 5 Noroeste 0 -- -- 92
2020-03-27 02:00:00 6.3 0 Calma 7 Noroeste 0 -- -- 92
2020-03-27 01:00:00 7.5 2 Oeste 5 Noroeste 0 -- -- 88
2020-03-27 00:00:00 9.5 3 Norte 13 Oeste 0 -- -- 82
2020-03-26 23:00:00 12 9 Oeste 13 Oeste 0 -- -- 74
2020-03-26 22:00:00 12.7 9 Oeste 11 Oeste 0 -- -- 71
2020-03-26 21:00:00 13.3 7 Noroeste 10 Oeste 0 -- -- 70
2020-03-26 20:00:00 16.4 6 Noroeste 25 Noroeste 0 -- -- 62
2020-03-26 19:00:00 19.8 15 Noroeste 27 Noroeste 0 -- -- 48
2020-03-26 18:00:00 21.6 14 Noroeste 27 Noroeste 0 -- -- 41
2020-03-26 17:00:00 20.7 14 Oeste 32 Oeste 0 -- -- 42
2020-03-26 16:00:00 20.1 16 Oeste 31 Oeste 0 -- -- 52
2020-03-26 15:00:00 20.8 14 Oeste 30 Sur 0 -- -- 49
2020-03-26 14:00:00 20.1 15 Sur 27 Sur 0 -- -- 64
2020-03-26 13:00:00 18.3 13 Sur 23 Sur 0 -- -- 69
2020-03-26 12:00:00 16.8 9 Sur 19 Sur 0.2 -- -- 75
2020-03-26 11:00:00 15.5 6 Sudoeste 16 Oeste 0 -- -- 77
2020-03-26 10:00:00 13.7 10 Oeste 16 Oeste 0 -- -- 85
2020-03-26 09:00:00 12.3 6 Oeste 18 Oeste 0 -- -- 90
2020-03-26 08:00:00 11.7 3 Oeste 21 Noroeste 0 -- -- 92
2020-03-26 07:00:00 11.9 8 Oeste 19 Sudoeste 0 -- -- 92
2020-03-26 06:00:00 11.9 9 Sudoeste 16 Oeste 0 -- -- 95
2020-03-26 05:00:00 11.6 5 Oeste 8 Noroeste 0 -- -- 95
2020-03-26 04:00:00 11.2 2 Sudoeste 11 Oeste 0 -- -- 93
2020-03-26 03:00:00 11.6 4 Oeste 13 Oeste 0 -- -- 93
2020-03-26 02:00:00 12 9 Oeste 20 Oeste 0 -- -- 91
2020-03-26 01:00:00 12.5 11 Oeste 21 Oeste 0 -- -- 91
2020-03-26 00:00:00 12.6 6 Oeste 17 Sudoeste 0 -- -- 91
2020-03-25 23:00:00 12.8 7 Oeste 21 Sudoeste 0 -- -- 88
2020-03-25 22:00:00 13.3 8 Oeste 26 Sudoeste 0 -- -- 88
2020-03-25 21:00:00 14.1 15 Oeste 24 Sudoeste 0 -- -- 84
2020-03-25 20:00:00 14.6 8 Oeste 22 Sudoeste 0.2 -- -- 83
2020-03-25 19:00:00 17.1 13 Sudoeste 23 Sudoeste 0 -- -- 71
2020-03-25 18:00:00 18.3 14 Sudoeste 27 Sudoeste 0 -- -- 62
2020-03-25 17:00:00 19.1 13 Sudoeste 26 Sudoeste 0 -- -- 58
2020-03-25 16:00:00 19.8 13 Sudoeste 22 Oeste 0 -- -- 55
2020-03-25 15:00:00 19.8 10 Sudoeste 20 Sudoeste 0 -- -- 54
2020-03-25 14:00:00 19.2 6 Oeste 12 Oeste 0 -- -- 57
2020-03-25 13:00:00 18.8 5 Sur 14 Oeste 0 -- -- 54
2020-03-25 12:00:00 16.9 3 Sudeste 10 Sur 0 -- -- 59
2020-03-25 11:00:00 15.3 3 Norte 8 Noroeste 0 -- -- 66
2020-03-25 10:00:00 13.1 0 Calma 8 Norte 0 -- -- 76
2020-03-25 09:00:00 10.3 2 Oeste 5 Sudeste 0 -- -- 91
2020-03-25 08:00:00 8.5 3 Norte 8 Norte 0 -- -- 95
2020-03-25 07:00:00 7.9 4 Este 6 Norte 0 -- -- 93
2020-03-25 06:00:00 8.6 3 Sudoeste 5 Nordeste 0 -- -- 94
2020-03-25 05:00:00 8.2 4 Nordeste 7 Norte 0 -- -- 91
2020-03-25 04:00:00 10 2 Este 8 Norte 0 -- -- 85
2020-03-25 03:00:00 12 0 Calma 9 Norte 0 -- -- 84
2020-03-25 02:00:00 12.5 3 Nordeste 9 Este 0 -- -- 77
2020-03-25 01:00:00 12.6 4 Nordeste 9 Nordeste 0 -- -- 78
2020-03-25 00:00:00 12.4 3 Nordeste 7 Nordeste 0 -- -- 81
2020-03-24 23:00:00 12.6 6 Este 14 Este 0 -- -- 74
2020-03-24 22:00:00 14.2 8 Nordeste 22 Este 0 -- -- 71
2020-03-24 21:00:00 14.5 8 Este 17 Este 0 -- -- 70
2020-03-24 20:00:00 16.2 5 Este 13 Este 0 -- -- 69
2020-03-24 19:00:00 17.8 6 Este 19 Este 0 -- -- 62
2020-03-24 18:00:00 19 8 Este 22 Este 0 -- -- 56
2020-03-24 17:00:00 19.3 14 Este 29 Este 0 -- -- 56
2020-03-24 16:00:00 19.5 16 Este 31 Sudeste 0 -- -- 55
2020-03-24 15:00:00 19.5 22 Este 36 Este 0 -- -- 57
2020-03-24 14:00:00 18.9 16 Este 33 Este 0 -- -- 58
2020-03-24 13:00:00 17.8 18 Nordeste 38 Este 0 -- -- 58
2020-03-24 12:00:00 16.5 19 Nordeste 35 Nordeste 0 -- -- 62
2020-03-24 11:00:00 16 18 Nordeste 31 Nordeste 0 -- -- 64
2020-03-24 10:00:00 14 13 Nordeste 22 Nordeste 0 -- -- 73
2020-03-24 09:00:00 11.9 9 Nordeste 20 Nordeste 0 -- -- 82
2020-03-24 08:00:00 8.9 4 Nordeste 10 Norte 0 -- -- 92
2020-03-24 07:00:00 7.8 0 Calma 7 Este 0 -- -- 94
2020-03-24 06:00:00 8 0 Calma 5 Este 0 -- -- 96
2020-03-24 05:00:00 8.3 0 Calma 8 Nordeste 0 -- -- 94
2020-03-24 04:00:00 8.4 4 Norte 8 Norte 0 -- -- 96
2020-03-24 03:00:00 8.1 0 Calma 6 Norte 0 -- -- 94
2020-03-24 02:00:00 9.7 5 Nordeste 10 Norte 0 -- -- 93
2020-03-24 01:00:00 9.7 2 Nordeste 10 Este 0 -- -- 94
2020-03-24 00:00:00 9.8 3 Nordeste 5 Nordeste 0 -- -- 91
2020-03-23 23:00:00 10.2 2 Nordeste 7 Nordeste 0.8 -- -- 92
2020-03-23 22:00:00 10 0 Calma 21 Nordeste 0.4 -- -- 92
2020-03-23 21:00:00 10.3 10 Nordeste 33 Este 1 -- -- 89
2020-03-23 20:00:00 11.4 17 Este 39 Este 0.4 -- -- 83
2020-03-23 19:00:00 14.7 6 Sudeste 16 Sudeste 0 -- -- 74
2020-03-23 18:00:00 14.1 0 Calma 27 Sur 0.2 -- -- 81
2020-03-23 17:00:00 16.5 6 Norte 23 Nordeste 0 -- -- 60
2020-03-23 16:00:00 17.4 10 Este 23 Este 0 -- -- 55
2020-03-23 15:00:00 16.7 10 Sudeste 25 Este 0 -- -- 59
2020-03-23 14:00:00 15.9 8 Nordeste 27 Este 0 -- -- 60
2020-03-23 13:00:00 16.6 14 Este 28 Este 0.2 -- -- 63
2020-03-23 12:00:00 15 13 Este 26 Este 0 -- -- 71
2020-03-23 11:00:00 13.9 13 Este 22 Este 0 -- -- 74
2020-03-23 10:00:00 11.4 6 Este 13 Este 0 -- -- 88
2020-03-23 09:00:00 9.9 3 Nordeste 6 Nordeste 0.6 -- -- 97
2020-03-23 08:00:00 8.8 0 Calma 3 Norte 0 -- -- 98
2020-03-23 07:00:00 8.6 0 Calma 2 Norte 0 -- -- 97
2020-03-23 06:00:00 8.6 0 Calma 4 Sudeste 0.2 -- -- 97
2020-03-23 05:00:00 8.7 0 Calma 3 Este 0.4 -- -- 97
2020-03-23 04:00:00 8.4 0 Calma 4 Oeste 0 -- -- 97
2020-03-23 03:00:00 8.2 0 Calma 6 Este 0 -- -- 97
2020-03-23 02:00:00 7.7 2 Noroeste 4 Noroeste 0 -- -- 97
2020-03-23 01:00:00 7.3 0 Calma 5 Norte 0 -- -- 96
2020-03-23 00:00:00 8.3 0 Calma 2 Sudoeste 0 -- -- 95
2020-03-22 23:00:00 8.4 0 Calma 8 Norte 0 -- -- 95
2020-03-22 22:00:00 9.2 3 Noroeste 6 Noroeste 0 -- -- 91
2020-03-22 21:00:00 10.6 3 Oeste 4 Noroeste 0 -- -- 90
2020-03-22 20:00:00 11.5 2 Nordeste 6 Noroeste 0.2 -- -- 87
2020-03-22 19:00:00 14.3 0 Calma 9 Noroeste 0 -- -- 75
2020-03-22 18:00:00 14.3 2 Noroeste 6 Norte 0 -- -- 73
2020-03-22 17:00:00 12.7 6 Este 15 Norte 0.4 -- -- 81
2020-03-22 16:00:00 14.2 3 Sudeste 9 Sudoeste 0 -- -- 72
2020-03-22 15:00:00 11.8 6 Noroeste 9 Noroeste 0 -- -- 84
2020-03-22 14:00:00 10.4 6 Noroeste 16 Norte 1.8 -- -- 93
2020-03-22 13:00:00 11.1 5 Noroeste 11 Sudoeste 0.4 -- -- 88
2020-03-22 12:00:00 11.4 4 Noroeste 13 Este 0.4 -- -- 92
2020-03-22 11:00:00 10.6 4 Este 9 Nordeste 0.2 -- -- 92
2020-03-22 10:00:00 9.7 4 Nordeste 11 Este 0 -- -- 95
2020-03-22 09:00:00 8.7 5 Nordeste 10 Nordeste 0.2 -- -- 97
2020-03-22 08:00:00 8.2 0 Calma 8 Este 5.6 -- -- 97
2020-03-22 07:00:00 8.3 0 Calma 5 Nordeste 1.2 -- -- 97
2020-03-22 06:00:00 8.5 0 Calma 4 Sudeste 0 -- -- 97
2020-03-22 05:00:00 8.4 0 Calma 12 Nordeste 2 -- -- 97
2020-03-22 04:00:00 8.4 2 Oeste 5 Nordeste 1.6 -- -- 98
2020-03-22 03:00:00 8.1 3 Norte 8 Este 1.2 -- -- 98
2020-03-22 02:00:00 7.9 4 Sudeste 9 Sudoeste 0.2 -- -- 98
2020-03-22 01:00:00 7.2 4 Norte 7 Sur 0 -- -- 98
2020-03-22 00:00:00 6.1 0 Calma 4 Sudeste 0 -- -- 97
2020-03-21 23:00:00 6.3 0 Calma 7 Nordeste 0 -- -- 95
2020-03-21 22:00:00 7.4 0 Calma 4 Norte 0 -- -- 94
2020-03-21 21:00:00 8.5 6 Oeste 19 Sur 0 -- -- 92
2020-03-21 20:00:00 8.6 4 Nordeste 12 Sudeste 0.2 -- -- 93
2020-03-21 19:00:00 9.8 3 Nordeste 15 Este 0.2 -- -- 87
2020-03-21 18:00:00 9.8 13 Este 24 Este 4 -- -- 88
2020-03-21 17:00:00 11.9 13 Este 27 Sudeste 0 -- -- 87
2020-03-21 16:00:00 11.7 5 Sudeste 11 Sur 1.2 -- -- 86
2020-03-21 15:00:00 11.2 6 Sudoeste 30 Sudoeste 1 -- -- 86
2020-03-21 14:00:00 11.1 19 Sudoeste 41 Sudoeste 3.2 -- -- 86
2020-03-21 13:00:00 14 12 Sudeste 20 Sur 0 -- -- 72
2020-03-21 12:00:00 13.7 8 Sur 16 Sudoeste 0 -- -- 75
2020-03-21 11:00:00 12.7 7 Sur 18 Sudoeste 0 -- -- 80
2020-03-21 10:00:00 10.8 6 Sur 14 Sudoeste 0 -- -- 90
2020-03-21 09:00:00 9.2 5 Sur 10 Sur 0 -- -- 94
2020-03-21 08:00:00 8.6 2 Sudoeste 14 Sudoeste 0 -- -- 94
2020-03-21 07:00:00 9.5 7 Sudoeste 19 Sudoeste 0 -- -- 94
2020-03-21 06:00:00 10 12 Sudoeste 21 Sudoeste 0 -- -- 94
2020-03-21 05:00:00 10.6 10 Sudoeste 24 Sur 0.2 -- -- 95
2020-03-21 04:00:00 10.5 5 Sur 32 Sudoeste 5.2 -- -- 92
2020-03-21 03:00:00 11.5 16 Sudoeste 35 Sudeste 5.4 -- -- 91
2020-03-21 02:00:00 13 11 Sudeste 26 Sur 2.4 -- -- 89
2020-03-21 01:00:00 13.3 9 Sudeste 17 Sudeste 0.4 -- -- 87
2020-03-21 00:00:00 13.8 8 Sudeste 26 Sudeste 0.4 -- -- 84
2020-03-20 23:00:00 14.8 13 Sur 26 Sudeste 0 -- -- 73
2020-03-20 22:00:00 14.9 15 Sudeste 30 Sudeste 0 -- -- 70
2020-03-20 21:00:00 14.6 9 Sudeste 18 Sudeste 0 -- -- 71
2020-03-20 20:00:00 14.7 6 Sudeste 12 Sudeste 0 -- -- 71
2020-03-20 19:00:00 17.7 5 Sudeste 15 Sudeste 0 -- -- 62
2020-03-20 18:00:00 18.3 11 Sudeste 27 Sudeste 0 -- -- 57
2020-03-20 17:00:00 19.2 16 Sudeste 30 Sudeste 0 -- -- 56
2020-03-20 16:00:00 19.6 12 Este 23 Este 0 -- -- 56
2020-03-20 15:00:00 19.7 9 Sudeste 27 Sudeste 0 -- -- 56
2020-03-20 14:00:00 18.5 12 Sudeste 28 Este 0 -- -- 60
2020-03-20 13:00:00 18 14 Este 24 Este 0 -- -- 61
2020-03-20 12:00:00 16.7 10 Este 27 Este 0 -- -- 67
2020-03-20 11:00:00 16.5 15 Este 27 Este 0 -- -- 67
2020-03-20 10:00:00 14.2 14 Este 22 Nordeste 0 -- -- 79
2020-03-20 09:00:00 11.8 11 Este 17 Este 0 -- -- 89
2020-03-20 08:00:00 8.8 0 Calma 6 Nordeste 0 -- -- 91
2020-03-20 07:00:00 10.6 3 Nordeste 10 Nordeste 0 -- -- 89
2020-03-20 06:00:00 10 3 Este 7 Este 0 -- -- 91
2020-03-20 05:00:00 11.1 2 Este 6 Nordeste 0 -- -- 88
2020-03-20 04:00:00 11.5 4 Nordeste 7 Nordeste 0 -- -- 89
2020-03-20 03:00:00 12 0 Calma 7 Nordeste 0 -- -- 87
2020-03-20 02:00:00 11.6 3 Nordeste 7 Nordeste 0 -- -- 89
2020-03-20 01:00:00 11.2 2 Este 4 Este 0 -- -- 87
2020-03-20 00:00:00 11.7 3 Nordeste 8 Este 0 -- -- 86
2020-03-19 23:00:00 11.7 4 Nordeste 5 Nordeste 0 -- -- 90
2020-03-19 22:00:00 12 2 Oeste 5 Este 0 -- -- 84
2020-03-19 21:00:00 13.6 5 Este 6 Nordeste 0 -- -- 79
2020-03-19 20:00:00 15.4 6 Sudeste 10 Sudeste 0 -- -- 72
2020-03-19 19:00:00 17.9 7 Sudeste 21 Sudeste 0 -- -- 61
2020-03-19 18:00:00 19.6 6 Sudeste 18 Sudeste 0 -- -- 55
2020-03-19 17:00:00 20.3 12 Este 24 Este 0 -- -- 53
2020-03-19 16:00:00 21.5 12 Sudeste 27 Este 0 -- -- 48
2020-03-19 15:00:00 20.5 15 Este 34 Este 0 -- -- 51
2020-03-19 14:00:00 19.6 14 Este 25 Este 0 -- -- 51
2020-03-19 13:00:00 19 14 Este 25 Este 0 -- -- 55
2020-03-19 12:00:00 16.6 17 Este 25 Este 0 -- -- 68
2020-03-19 11:00:00 15.5 10 Este 21 Este 0 -- -- 76
2020-03-19 10:00:00 12.9 6 Este 11 Este 0 -- -- 88
2020-03-19 09:00:00 9.3 0 Calma 2 Norte 0 -- -- 97
2020-03-19 08:00:00 7.5 0 Calma 4 Norte 0 -- -- 95
2020-03-19 07:00:00 7.4 0 Calma 4 Nordeste 0 -- -- 93
2020-03-19 06:00:00 7.9 0 Calma 8 Nordeste 0 -- -- 93
2020-03-19 05:00:00 8.1 3 Nordeste 13 Este 0 -- -- 93
2020-03-19 04:00:00 8.1 2 Nordeste 6 Nordeste 0 -- -- 94
2020-03-19 03:00:00 8 0 Calma 2 Noroeste 0 -- -- 92
2020-03-19 02:00:00 8.4 0 Calma 6 Noroeste 0 -- -- 92
2020-03-19 01:00:00 8.4 2 Norte 6 Noroeste 0 -- -- 93
2020-03-19 00:00:00 9 0 Calma 4 Norte 0 -- -- 89
2020-03-18 23:00:00 10 0 Calma 5 Noroeste 0 -- -- 87
2020-03-18 22:00:00 11.5 0 Calma 9 Norte 0 -- -- 84
2020-03-18 21:00:00 13 0 Calma 4 Sur 0 -- -- 79
2020-03-18 20:00:00 16.3 2 Este 8 Este 0 -- -- 69
2020-03-18 19:00:00 20.3 7 Este 15 Nordeste 0 -- -- 51
2020-03-18 18:00:00 21.6 9 Este 20 Este 0 -- -- 48
2020-03-18 17:00:00 22.5 11 Este 27 Este 0 -- -- 47
2020-03-18 16:00:00 22.8 13 Este 33 Este 0 -- -- 46
2020-03-18 15:00:00 22.5 17 Este 33 Este 0 -- -- 45
2020-03-18 14:00:00 21.4 21 Este 39 Este 0 -- -- 48
2020-03-18 13:00:00 20.5 21 Este 41 Este 0 -- -- 50
2020-03-18 12:00:00 20 25 Este 46 Este 0 -- -- 51
2020-03-18 11:00:00 18.9 24 Este 40 Este 0 -- -- 55
2020-03-18 10:00:00 16.5 18 Este 36 Este 0 -- -- 61
2020-03-18 09:00:00 15.1 16 Este 27 Este 0 -- -- 66
2020-03-18 08:00:00 14.2 14 Este 23 Este 0 -- -- 69
2020-03-18 07:00:00 13.9 13 Este 24 Este 0 -- -- 70
2020-03-18 06:00:00 12.4 5 Este 15 Nordeste 0 -- -- 78
2020-03-18 05:00:00 10.3 9 Este 12 Este 0 -- -- 90
2020-03-18 04:00:00 11 3 Oeste 12 Este 0 -- -- 84
2020-03-18 03:00:00 13.5 6 Este 24 Este 0 -- -- 78
2020-03-18 02:00:00 14 14 Este 35 Este 0 -- -- 76
2020-03-18 01:00:00 14.4 13 Este 23 Este 0 -- -- 73
2020-03-18 00:00:00 13.8 7 Este 22 Este 0 -- -- 72
2020-03-17 23:00:00 11.9 7 Nordeste 13 Nordeste 0 -- -- 75
2020-03-17 22:00:00 11.6 9 Este 16 Este 0 -- -- 75
2020-03-17 21:00:00 11 2 Sur 8 Norte 0 -- -- 80
2020-03-17 20:00:00 13.4 2 Nordeste 15 Este 0 -- -- 72
2020-03-17 19:00:00 16 13 Este 26 Este 0 -- -- 52
2020-03-17 18:00:00 17.3 7 Nordeste 15 Este 0 -- -- 50
2020-03-17 17:00:00 16.9 12 Este 28 Este 0 -- -- 44
2020-03-17 16:00:00 17.3 18 Este 29 Este 0 -- -- 44
2020-03-17 15:00:00 16.5 11 Este 25 Este 0 -- -- 49
2020-03-17 14:00:00 16.2 16 Este 33 Este 0 -- -- 53
2020-03-17 13:00:00 14.2 12 Este 23 Este 0 -- -- 65
2020-03-17 12:00:00 12.4 14 Este 25 Este 0.2 -- -- 70
2020-03-17 11:00:00 10.5 10 Este 22 Este 0 -- -- 80
2020-03-17 10:00:00 9.6 10 Este 24 Este 0 -- -- 85
2020-03-17 09:00:00 7.6 11 Este 22 Este 0.2 -- -- 93
2020-03-17 08:00:00 7.1 17 Este 27 Este 0.2 -- -- 95
2020-03-17 07:00:00 7.2 12 Este 27 Este 1.8 -- -- 95
2020-03-17 06:00:00 7.4 19 Este 31 Este 0.6 -- -- 94
2020-03-17 05:00:00 7.5 14 Este 22 Este 0 -- -- 93
2020-03-17 04:00:00 7.2 12 Este 20 Este 0 -- -- 93
2020-03-17 03:00:00 6.2 5 Nordeste 11 Nordeste 0 -- -- 91
2020-03-17 02:00:00 6.9 2 Nordeste 5 Nordeste 0 -- -- 88
2020-03-17 01:00:00 6.6 3 Norte 5 Nordeste 0 -- -- 89
2020-03-17 00:00:00 6.5 0 Calma 6 Norte 0 -- -- 83
2020-03-16 23:00:00 8 4 Norte 9 Norte 0 -- -- 77
2020-03-16 22:00:00 8.4 4 Noroeste 19 Oeste 0 -- -- 76
2020-03-16 21:00:00 8.7 9 Oeste 23 Noroeste 0 -- -- 73
2020-03-16 20:00:00 9.7 17 Noroeste 31 Noroeste 0 -- -- 68
2020-03-16 19:00:00 10 9 Oeste 39 Noroeste 0 -- -- 67
2020-03-16 18:00:00 11.5 14 Noroeste 27 Noroeste 0 -- -- 57
2020-03-16 17:00:00 10.9 19 Noroeste 36 Norte 0 -- -- 59
2020-03-16 16:00:00 12.5 16 Noroeste 31 Noroeste 0 -- -- 51
2020-03-16 15:00:00 12.1 18 Noroeste 29 Oeste 0 -- -- 49
2020-03-16 14:00:00 12.4 13 Noroeste 23 Noroeste 0 -- -- 50
2020-03-16 13:00:00 12.7 13 Oeste 24 Noroeste 0 -- -- 48
2020-03-16 12:00:00 13.2 12 Noroeste 24 Noroeste 0 -- -- 48
2020-03-16 11:00:00 11.9 8 Oeste 29 Noroeste 0 -- -- 52
2020-03-16 10:00:00 10.6 13 Noroeste 23 Noroeste 0 -- -- 56
2020-03-16 09:00:00 8.1 6 Norte 16 Noroeste 0 -- -- 66
2020-03-16 08:00:00 3.8 4 Noroeste 12 Sudoeste 0 -- -- 77
2020-03-16 07:00:00 5.2 5 Noroeste 17 Noroeste 0 -- -- 70
2020-03-16 06:00:00 7.8 6 Noroeste 29 Noroeste 0 -- -- 59
2020-03-16 05:00:00 8.9 14 Noroeste 35 Noroeste 0 -- -- 57
2020-03-16 04:00:00 9.7 17 Noroeste 37 Norte 0 -- -- 58
2020-03-16 03:00:00 11 16 Noroeste 42 Noroeste 0 -- -- 61
2020-03-16 02:00:00 12.5 13 Noroeste 33 Norte 0 -- -- 60
2020-03-16 01:00:00 13.9 6 Noroeste 15 Noroeste 0 -- -- 68
2020-03-16 00:00:00 14.3 5 Noroeste 13 Sudoeste 0 -- -- 80
2020-03-15 23:00:00 13.8 8 Oeste 12 Sudoeste 0 -- -- 81
2020-03-15 22:00:00 11.9 0 Calma 8 Noroeste 0 -- -- 83
2020-03-15 21:00:00 14.2 5 Noroeste 17 Sur 0 -- -- 78
2020-03-15 20:00:00 18.4 9 Sudoeste 21 Sudoeste 0 -- -- 62
2020-03-15 19:00:00 20.2 12 Sudoeste 26 Sudoeste 0 -- -- 55
2020-03-15 18:00:00 21.7 14 Sudoeste 24 Sudoeste 0 -- -- 53
2020-03-15 17:00:00 22.2 15 Sudoeste 24 Sur 0 -- -- 53
2020-03-15 16:00:00 22.2 11 Sudoeste 22 Sudoeste 0 -- -- 59
2020-03-15 15:00:00 21.6 10 Sur 22 Sudoeste 0 -- -- 60
2020-03-15 14:00:00 21.1 7 Sur 17 Sur 0 -- -- 61
2020-03-15 13:00:00 19.5 3 Nordeste 12 Sudeste 0 -- -- 66
2020-03-15 12:00:00 18.2 5 Sudeste 12 Sur 0 -- -- 71
2020-03-15 11:00:00 15.8 5 Nordeste 9 Nordeste 0 -- -- 82
2020-03-15 10:00:00 12.5 2 Norte 3 Nordeste 0 -- -- 97
2020-03-15 09:00:00 8.9 0 Calma 3 Sur 0 -- -- 99
2020-03-15 08:00:00 6.2 0 Calma 4 Norte 0 -- -- 97
2020-03-15 07:00:00 6 0 Calma 2 Noroeste 0 -- -- 96
2020-03-15 06:00:00 6.2 0 Calma 6 Noroeste 0 -- -- 96
2020-03-15 05:00:00 6.6 0 Calma 3 Sudeste 0 -- -- 95
2020-03-15 04:00:00 6.7 0 Calma 4 Noroeste 0 -- -- 95
2020-03-15 03:00:00 7.1 0 Calma 3 Norte 0 -- -- 94
2020-03-15 02:00:00 7.7 2 Este 4 Sudeste 0 -- -- 93
2020-03-15 01:00:00 8.5 2 Noroeste 3 Noroeste 0 -- -- 93
2020-03-15 00:00:00 8.9 2 Norte 4 Norte 0 -- -- 92
2020-03-14 23:00:00 9.7 3 Norte 4 Norte 0 -- -- 90
2020-03-14 22:00:00 10.8 3 Noroeste 4 Norte 0 -- -- 88
2020-03-14 21:00:00 12.6 0 Calma 6 Norte 0 -- -- 85
2020-03-14 20:00:00 15.4 4 Norte 6 Noroeste 0 -- -- 79
2020-03-14 19:00:00 20.9 3 Sur 11 Sudoeste 0 -- -- 63
2020-03-14 18:00:00 21.8 7 Sudoeste 13 Sudoeste 0 -- -- 58
2020-03-14 17:00:00 21.9 6 Sudoeste 14 Sudoeste 0 -- -- 59
2020-03-14 16:00:00 21.2 5 Oeste 13 Oeste 0 -- -- 64
2020-03-14 15:00:00 18.9 4 Oeste 13 Sur 0 -- -- 74
2020-03-14 14:00:00 16.6 8 Sur 14 Sudeste 0 -- -- 84
2020-03-14 13:00:00 14.6 3 Sur 11 Este 0 -- -- 90
2020-03-14 12:00:00 13.6 0 Calma 6 Sur 0 -- -- 94
2020-03-14 11:00:00 12.5 0 Calma 4 Noroeste 0 -- -- 98
2020-03-14 10:00:00 11.6 0 Calma 5 Norte 0 -- -- 98
2020-03-14 09:00:00 10.8 4 Norte 5 Norte 0 -- -- 98
2020-03-14 08:00:00 10.5 0 Calma 4 Sudoeste 0 -- -- 98
2020-03-14 07:00:00 10.4 0 Calma 4 Norte 0 -- -- 98
2020-03-14 06:00:00 9.6 3 Norte 4 Norte 0 -- -- 98
2020-03-14 05:00:00 9 0 Calma 2 Sur 0 -- -- 97
2020-03-14 04:00:00 8.4 0 Calma 3 Sudoeste 0 -- -- 96
2020-03-14 03:00:00 8.1 2 Norte 4 Noroeste 0 -- -- 94
2020-03-14 02:00:00 8.7 0 Calma 5 Noroeste 0 -- -- 94
2020-03-14 01:00:00 9.4 2 Noroeste 5 Noroeste 0 -- -- 92
2020-03-14 00:00:00 10.3 0 Calma 4 Noroeste 0 -- -- 90
2020-03-13 23:00:00 11.7 0 Calma 5 Norte 0 -- -- 88
2020-03-13 22:00:00 13 5 Noroeste 6 Noroeste 0 -- -- 86
2020-03-13 21:00:00 14.7 2 Nordeste 8 Oeste 0 -- -- 80
2020-03-13 20:00:00 17.4 3 Oeste 13 Sudoeste 0 -- -- 73
2020-03-13 19:00:00 20.4 9 Oeste 22 Sudoeste 0 -- -- 63
2020-03-13 18:00:00 21.4 13 Sudoeste 23 Oeste 0 -- -- 59
2020-03-13 17:00:00 21.9 13 Sudoeste 22 Sudoeste 0 -- -- 58
2020-03-13 16:00:00 22.1 11 Sudoeste 19 Sudoeste 0 -- -- 58
2020-03-13 15:00:00 20.7 9 Sudoeste 18 Oeste 0 -- -- 62
2020-03-13 14:00:00 19.1 6 Sur 17 Sur 0 -- -- 65
2020-03-13 13:00:00 16.9 6 Oeste 14 Oeste 0 -- -- 75
2020-03-13 12:00:00 13.7 4 Noroeste 10 Oeste 0 -- -- 90
2020-03-13 11:00:00 12.2 6 Oeste 9 Sudoeste 0 -- -- 96
2020-03-13 10:00:00 10.7 0 Calma 3 Sudeste 0 -- -- 98
2020-03-13 09:00:00 8.5 0 Calma 3 Noroeste 0 -- -- 98
2020-03-13 08:00:00 5.7 0 Calma 4 Norte 0 -- -- 97
2020-03-13 07:00:00 4.1 0 Calma 6 Noroeste 0 -- -- 94
2020-03-13 06:00:00 4.4 0 Calma 3 Norte 0 -- -- 93
2020-03-13 05:00:00 5 2 Noroeste 5 Noroeste 0 -- -- 94
2020-03-13 04:00:00 5.6 0 Calma 4 Noroeste 0 -- -- 91
2020-03-13 03:00:00 6.3 0 Calma 4 Norte 0 -- -- 92
2020-03-13 02:00:00 7.2 0 Calma 4 Oeste 0 -- -- 91
2020-03-13 01:00:00 7.8 0 Calma 5 Noroeste 0 -- -- 89
2020-03-13 00:00:00 9.2 0 Calma 2 Norte 0 -- -- 87
2020-03-12 23:00:00 11.8 0 Calma 5 Noroeste 0 -- -- 84
2020-03-12 22:00:00 13.5 0 Calma 6 Noroeste 0 -- -- 79
2020-03-12 21:00:00 16.7 0 Calma 12 Oeste 0 -- -- 70
2020-03-12 20:00:00 19.4 9 Oeste 16 Oeste 0 -- -- 59
2020-03-12 19:00:00 22.2 11 Oeste 22 Sudoeste 0 -- -- 54
2020-03-12 18:00:00 23.9 12 Sudoeste 29 Sudoeste 0 -- -- 48
2020-03-12 17:00:00 24.5 14 Oeste 35 Oeste 0 -- -- 47
2020-03-12 16:00:00 25.5 16 Sudoeste 27 Sudoeste 0 -- -- 41
2020-03-12 15:00:00 25.7 12 Sudoeste 22 Sudoeste 0 -- -- 41
2020-03-12 14:00:00 25 8 Oeste 15 Oeste 0 -- -- 44
2020-03-12 13:00:00 24.1 5 Este 10 Sudoeste 0 -- -- 46
2020-03-12 12:00:00 21.6 3 Norte 8 Este 0 -- -- 54
2020-03-12 11:00:00 18.7 2 Este 5 Este 0 -- -- 62
2020-03-12 10:00:00 13.9 0 Calma 4 Oeste 0 -- -- 81
2020-03-12 09:00:00 8.6 0 Calma 3 Sudoeste 0 -- -- 98
2020-03-12 08:00:00 5.6 0 Calma 3 Noroeste 0 -- -- 94
2020-03-12 07:00:00 5.7 0 Calma 5 Noroeste 0 -- -- 94
2020-03-12 06:00:00 5.6 0 Calma 4 Norte 0 -- -- 93
2020-03-12 05:00:00 5.7 0 Calma 3 Noroeste 0 -- -- 91
2020-03-12 04:00:00 6.4 0 Calma 4 Norte 0 -- -- 92
2020-03-12 03:00:00 7.1 2 Oeste 4 Oeste 0 -- -- 91
2020-03-12 02:00:00 7.9 3 Noroeste 5 Oeste 0 -- -- 91
2020-03-12 01:00:00 8.3 0 Calma 3 Norte 0 -- -- 89
2020-03-12 00:00:00 9.5 0 Calma 5 Oeste 0 -- -- 86
2020-03-11 23:00:00 10.4 3 Norte 5 Norte 0 -- -- 86
2020-03-11 22:00:00 11.8 0 Calma 6 Noroeste 0 -- -- 81
2020-03-11 21:00:00 14.2 0 Calma 5 Norte 0 -- -- 74
2020-03-11 20:00:00 17.8 3 Noroeste 5 Noroeste 0 -- -- 68
2020-03-11 19:00:00 23.4 0 Calma 5 Este 0 -- -- 60
2020-03-11 18:00:00 25.8 4 Este 13 Este 0 -- -- 39
2020-03-11 17:00:00 27.6 7 Este 17 Este 0 -- -- 38
2020-03-11 16:00:00 27.7 6 Este 15 Este 0 -- -- 40
2020-03-11 15:00:00 26.9 3 Este 17 Este 0 -- -- 37
2020-03-11 14:00:00 27.2 7 Sudeste 18 Este 0 -- -- 33
2020-03-11 13:00:00 25.4 5 Este 18 Este 0 -- -- 39
2020-03-11 12:00:00 23.1 9 Este 21 Este 0 -- -- 48
2020-03-11 11:00:00 21.4 11 Este 19 Este 0 -- -- 49
2020-03-11 10:00:00 16.8 2 Este 5 Este 0 -- -- 71
2020-03-11 09:00:00 9.2 0 Calma 2 Sudoeste 0 -- -- 97
2020-03-11 08:00:00 4.2 0 Calma 3 Oeste 0 -- -- 94
2020-03-11 07:00:00 4.5 3 Noroeste 4 Noroeste 0 -- -- 94
2020-03-11 06:00:00 4.9 0 Calma 5 Norte 0 -- -- 92
2020-03-11 05:00:00 5.8 0 Calma 5 Noroeste 0 -- -- 93
2020-03-11 04:00:00 6.1 0 Calma 5 Norte 0 -- -- 92
2020-03-11 03:00:00 6.5 4 Noroeste 6 Noroeste 0 -- -- 90
2020-03-11 02:00:00 7.3 0 Calma 6 Noroeste 0 -- -- 88
2020-03-11 01:00:00 8.1 2 Sudoeste 6 Oeste 0 -- -- 88
2020-03-11 00:00:00 9.1 0 Calma 7 Sudoeste 0 -- -- 84